createdAt,value
2023-02-11T00:01:35.483Z,99932.94
2023-02-11T00:04:07.084Z,99916.53
2023-02-11T00:06:36.369Z,99874.97
2023-02-11T00:09:05.131Z,99917.59
2023-02-11T00:11:34.689Z,99889.38
2023-02-11T00:14:07.826Z,99895.72
2023-02-11T00:16:36.320Z,99908.06
2023-02-11T00:19:06.111Z,99903.72
2023-02-11T00:21:34.745Z,99901.28
2023-02-11T00:24:02.876Z,99903.94
2023-02-11T00:26:32.905Z,99893.59
2023-02-11T00:29:02.488Z,99890.13
2023-02-11T00:31:30.837Z,99904.88
2023-02-11T00:33:58.917Z,99885.63
2023-02-11T00:36:29.452Z,99909.97
2023-02-11T00:38:59.273Z,99894.56
2023-02-11T00:41:27.533Z,99890.28
2023-02-11T00:43:55.444Z,99866.00
2023-02-11T00:46:25.119Z,99870.72
2023-02-11T00:48:55.080Z,99876.84
2023-02-11T00:51:22.963Z,99866.28
2023-02-11T00:53:51.026Z,99869.31
2023-02-11T00:56:18.945Z,99878.03
2023-02-11T00:58:46.896Z,99878.84
2023-02-11T01:01:15.375Z,99878.03
2023-02-11T01:03:44.775Z,99872.78
2023-02-11T01:06:12.735Z,99866.88
2023-02-11T01:08:41.205Z,99858.91
2023-02-11T01:11:14.322Z,99862.66
2023-02-11T01:13:42.393Z,99869.53
2023-02-11T01:16:12.675Z,99867.09
2023-02-11T01:18:41.983Z,99853.00
2023-02-11T01:21:11.795Z,99866.34
2023-02-11T01:23:39.635Z,99864.66
2023-02-11T01:26:07.751Z,99862.06
2023-02-11T01:28:35.942Z,99847.50
2023-02-11T01:31:04.552Z,99849.28
2023-02-11T01:33:33.167Z,99848.47
2023-02-11T01:36:05.665Z,99836.28
2023-02-11T01:38:35.227Z,99834.81
2023-02-11T01:41:05.396Z,99829.63
2023-02-11T01:43:37.319Z,99790.56
2023-02-11T01:46:30.259Z,99850.53
2023-02-11T01:49:03.256Z,99865.38
2023-02-11T01:51:35.268Z,99866.25
2023-02-11T01:54:24.746Z,99861.22
2023-02-11T01:57:13.488Z,99853.53
2023-02-11T01:59:47.156Z,99859.72
2023-02-11T02:02:18.574Z,99833.31
2023-02-11T02:04:54.283Z,99858.31
2023-02-11T02:07:29.966Z,99846.34
2023-02-11T02:10:01.608Z,99848.25
2023-02-11T02:12:29.445Z,99855.25
2023-02-11T02:15:19.940Z,99857.84
2023-02-11T02:17:55.079Z,99851.72
2023-02-11T02:21:05.613Z,99806.94
2023-02-11T02:23:48.089Z,99850.22
2023-02-11T02:26:55.364Z,99863.28
2023-02-11T02:30:02.482Z,99869.41
2023-02-11T02:32:52.123Z,99877.31
2023-02-11T02:35:32.500Z,99724.44
2023-02-11T02:38:08.077Z,99875.81
2023-02-11T02:40:41.750Z,99875.91
2023-02-11T02:43:11.836Z,99889.03
2023-02-11T02:45:39.675Z,99879.50
2023-02-11T02:48:08.909Z,99881.28
2023-02-11T02:50:38.672Z,99885.63
2023-02-11T02:53:21.531Z,99888.28
2023-02-11T02:56:00.250Z,99887.41
2023-02-11T02:59:05.442Z,99887.41
2023-02-11T03:01:43.562Z,99898.69
2023-02-11T03:04:22.150Z,99895.22
2023-02-11T03:06:56.960Z,99871.13
2023-02-11T03:09:31.258Z,99825.16
2023-02-11T03:12:01.685Z,99910.00
2023-02-11T03:14:31.818Z,99910.97
2023-02-11T03:17:01.872Z,99924.84
2023-02-11T03:19:37.691Z,99924.94
2023-02-11T03:22:12.258Z,99923.34
2023-02-11T03:24:42.440Z,99925.13
2023-02-11T03:27:16.576Z,99931.25
2023-02-11T03:29:51.769Z,99934.66
2023-02-11T03:32:26.932Z,99945.84
2023-02-11T03:34:59.377Z,99955.28
2023-02-11T03:37:33.930Z,99914.75
2023-02-11T03:40:05.325Z,99951.53
2023-02-11T03:42:36.836Z,99956.56
2023-02-11T03:45:09.445Z,99914.75
2023-02-11T03:47:41.346Z,99950.09
2023-02-11T03:50:13.759Z,99954.16
2023-02-11T03:52:42.103Z,99962.59
2023-02-11T03:55:14.982Z,99916.03
2023-02-11T03:57:43.158Z,99980.94
2023-02-11T04:00:12.421Z,99984.13
2023-02-11T04:02:41.459Z,99988.13
2023-02-11T04:05:16.384Z,99982.34
2023-02-11T04:07:44.374Z,99994.16
2023-02-11T04:10:13.636Z,99992.25
2023-02-11T04:12:41.512Z,100021.06
2023-02-11T04:15:10.056Z,100024.28
2023-02-11T04:17:38.249Z,99971.59
2023-02-11T04:20:06.791Z,100031.75
2023-02-11T04:22:36.145Z,100032.41
2023-02-11T04:25:04.492Z,100031.78
2023-02-11T04:27:32.308Z,100016.63
2023-02-11T04:30:00.284Z,100043.16
2023-02-11T04:32:28.187Z,100043.75
2023-02-11T04:34:56.030Z,100023.19
2023-02-11T04:37:24.092Z,100045.06
2023-02-11T04:39:53.269Z,100060.53
2023-02-11T04:42:21.166Z,100061.28
2023-02-11T04:44:49.165Z,100076.69
2023-02-11T04:47:17.121Z,100078.31
2023-02-11T04:49:45.007Z,100093.72
2023-02-11T04:52:13.004Z,100099.63
2023-02-11T04:54:41.073Z,100071.88
2023-02-11T04:57:10.288Z,100106.25
2023-02-11T04:59:38.387Z,100113.03
2023-02-11T05:02:06.180Z,100119.81
2023-02-11T05:04:34.157Z,100134.25
2023-02-11T05:07:02.084Z,100123.59
2023-02-11T05:09:30.073Z,100134.81
2023-02-11T05:11:57.988Z,100141.59
2023-02-11T05:14:27.357Z,100147.47
2023-02-11T05:16:55.228Z,100155.06
2023-02-11T05:19:23.059Z,100159.97
2023-02-11T05:22:02.170Z,100162.31
2023-02-11T05:24:32.707Z,100192.78
2023-02-11T05:27:01.310Z,100204.34
2023-02-11T05:29:30.537Z,100204.91
2023-02-11T05:31:59.914Z,100207.69
2023-02-11T05:34:28.035Z,100196.03
2023-02-11T05:36:56.323Z,100217.66
2023-02-11T05:39:24.202Z,100228.59
2023-02-11T05:41:52.311Z,100183.69
2023-02-11T05:44:20.227Z,100231.81
2023-02-11T05:46:50.389Z,100250.47
2023-02-11T05:49:18.979Z,100251.19
2023-02-11T05:51:46.913Z,100263.91
2023-02-11T05:54:15.140Z,100271.66
2023-02-11T05:56:44.910Z,100286.31
2023-02-11T05:59:15.156Z,100293.09
2023-02-11T06:01:43.146Z,100119.22
2023-02-11T06:04:12.593Z,100305.78
2023-02-11T06:06:40.474Z,100295.72
2023-02-11T06:09:08.330Z,100301.22
2023-02-11T06:11:36.342Z,100326.94
2023-02-11T06:14:04.449Z,100332.81
2023-02-11T06:16:32.341Z,100340.47
2023-02-11T06:19:00.534Z,100367.13
2023-02-11T06:21:42.775Z,100351.91
2023-02-11T06:24:11.156Z,100377.25
2023-02-11T06:26:39.011Z,100393.53
2023-02-11T06:29:06.821Z,100382.13
2023-02-11T06:31:34.900Z,100382.56
2023-02-11T06:34:02.857Z,100383.41
2023-02-11T06:36:32.297Z,100403.91
2023-02-11T06:39:00.370Z,100409.53
2023-02-11T06:41:28.297Z,100403.97
2023-02-11T06:43:56.244Z,100417.38
2023-02-11T06:46:24.387Z,100398.16
2023-02-11T06:48:52.304Z,100430.56
2023-02-11T06:51:20.135Z,100411.63
2023-02-11T06:53:49.586Z,100428.97
2023-02-11T06:56:22.140Z,100439.47
2023-02-11T06:58:54.803Z,100456.63
2023-02-11T07:01:23.491Z,100471.19
2023-02-11T07:03:52.010Z,100474.56
2023-02-11T07:06:22.544Z,100485.94
2023-02-11T07:08:52.000Z,100505.88
2023-02-11T07:11:24.408Z,100508.34
2023-02-11T07:13:53.553Z,100521.91
2023-02-11T07:16:22.323Z,100534.78
2023-02-11T07:18:51.371Z,100553.03
2023-02-11T07:21:21.451Z,100553.41
2023-02-11T07:23:51.522Z,100512.34
2023-02-11T07:26:23.119Z,100587.03
2023-02-11T07:28:51.844Z,100580.78
2023-02-11T07:31:22.052Z,100578.50
2023-02-11T07:33:50.387Z,100596.06
2023-02-11T07:36:18.244Z,100606.38
2023-02-11T07:38:46.215Z,100588.19
2023-02-11T07:41:17.458Z,100583.72
2023-02-11T07:43:46.206Z,100582.75
2023-02-11T07:46:16.983Z,100604.16
2023-02-11T07:48:45.197Z,100632.84
2023-02-11T07:51:15.057Z,100648.56
2023-02-11T07:53:43.166Z,100660.81
2023-02-11T07:56:13.091Z,100669.84
2023-02-11T07:58:43.272Z,100683.16
2023-02-11T08:01:13.388Z,100680.47
2023-02-11T08:03:42.924Z,100661.31
2023-02-11T08:06:13.560Z,100714.72
2023-02-11T08:08:41.584Z,100712.03
2023-02-11T08:11:10.365Z,100685.72
2023-02-11T08:13:38.592Z,100731.97
2023-02-11T08:16:09.324Z,100730.78
2023-02-11T08:18:37.558Z,100638.88
2023-02-11T08:21:06.983Z,100706.84
2023-02-11T08:23:35.217Z,100760.56
2023-02-11T08:26:03.849Z,100787.47
2023-02-11T08:28:32.409Z,100757.16
2023-02-11T08:31:08.473Z,100791.03
2023-02-11T08:33:36.562Z,100745.84
2023-02-11T08:36:10.551Z,100811.97
2023-02-11T08:38:38.732Z,100826.56
2023-02-11T08:41:06.720Z,100840.28
2023-02-11T08:43:34.816Z,100844.91
2023-02-11T08:46:02.898Z,100845.75
2023-02-11T08:48:32.213Z,100849.22
2023-02-11T08:51:00.125Z,100893.81
2023-02-11T08:53:28.293Z,100902.13
2023-02-11T08:55:56.780Z,100919.59
2023-02-11T08:58:24.718Z,100929.13
2023-02-11T09:00:53.065Z,100762.22
2023-02-11T09:03:21.321Z,100953.03
2023-02-11T09:05:53.395Z,100956.41
2023-02-11T09:08:21.803Z,100958.44
2023-02-11T09:10:49.953Z,100981.41
2023-02-11T09:13:18.271Z,100980.41
2023-02-11T09:15:47.483Z,100926.25
2023-02-11T09:18:15.686Z,101010.44
2023-02-11T09:20:43.739Z,101030.19
2023-02-11T09:23:13.034Z,101036.25
2023-02-11T09:25:41.383Z,101045.44
2023-02-11T09:28:09.824Z,101058.47
2023-02-11T09:30:38.786Z,101074.63
2023-02-11T09:33:06.666Z,101078.88
2023-02-11T09:35:34.937Z,101064.00
2023-02-11T09:38:03.043Z,101093.44
2023-02-11T09:40:32.263Z,101100.28
2023-02-11T09:43:09.150Z,101117.81
2023-02-11T09:45:37.183Z,101133.84
2023-02-11T09:48:13.724Z,101141.47
2023-02-11T09:50:44.819Z,101154.28
2023-02-11T09:53:19.446Z,101162.25
2023-02-11T09:55:55.722Z,101164.59
2023-02-11T09:58:28.040Z,101158.88
2023-02-11T10:01:07.797Z,101184.00
2023-02-11T10:04:00.793Z,101183.00
2023-02-11T10:06:41.772Z,101187.69
2023-02-11T10:09:32.842Z,101175.34
2023-02-11T10:12:19.576Z,101202.28
2023-02-11T10:15:10.789Z,101204.06
2023-02-11T10:17:46.517Z,101192.63
2023-02-11T10:20:27.291Z,101211.25
2023-02-11T10:22:56.825Z,101217.31
2023-02-11T10:25:26.476Z,101231.09
2023-02-11T10:27:59.335Z,101230.09
2023-02-11T10:30:32.182Z,101224.25
2023-02-11T10:33:04.243Z,101235.69
2023-02-11T10:35:33.220Z,101239.16
2023-02-11T10:38:01.741Z,101258.69
2023-02-11T10:40:32.571Z,101272.03
2023-02-11T10:43:05.719Z,101273.81
2023-02-11T10:45:37.576Z,101278.31
2023-02-11T10:48:07.393Z,101208.53
2023-02-11T10:50:37.080Z,101283.94
2023-02-11T10:53:14.792Z,101253.72
2023-02-11T10:55:51.536Z,101277.19
2023-02-11T10:58:28.010Z,101311.56
2023-02-11T11:00:57.505Z,101305.19
2023-02-11T11:03:26.909Z,101292.69
2023-02-11T11:05:58.729Z,101327.75
2023-02-11T11:08:40.742Z,101316.50
2023-02-11T11:11:10.155Z,101339.19
2023-02-11T11:13:40.985Z,101350.72
2023-02-11T11:16:22.304Z,101353.09
2023-02-11T11:18:51.670Z,101358.91
2023-02-11T11:21:22.866Z,101375.19
2023-02-11T11:23:54.928Z,101361.91
2023-02-11T11:26:25.292Z,101330.75
2023-02-11T11:29:01.465Z,101399.06
2023-02-11T11:31:33.076Z,101414.78
2023-02-11T11:34:03.713Z,101414.78
2023-02-11T11:36:37.790Z,101423.13
2023-02-11T11:39:20.273Z,101420.84
2023-02-11T11:41:54.126Z,101435.31
2023-02-11T11:44:29.356Z,101449.56
2023-02-11T11:47:23.389Z,101461.00
2023-02-11T11:50:06.433Z,101461.78
2023-02-11T11:52:40.812Z,101479.19
2023-02-11T11:55:18.670Z,101489.75
2023-02-11T11:57:46.696Z,101493.59
2023-02-11T12:00:21.393Z,101500.56
2023-02-11T12:03:24.329Z,101506.84
2023-02-11T12:06:04.368Z,101515.06
2023-02-11T12:08:42.420Z,101540.56
2023-02-11T12:11:18.548Z,101532.84
2023-02-11T12:13:59.913Z,101547.78
2023-02-11T12:16:37.622Z,101547.91
2023-02-11T12:19:31.051Z,101565.13
2023-02-11T12:22:10.756Z,101573.78
2023-02-11T12:25:10.058Z,101584.09
2023-02-11T12:27:49.344Z,101561.03
2023-02-11T12:30:30.384Z,101571.19
2023-02-11T12:33:10.628Z,101594.16
2023-02-11T12:35:53.458Z,101593.75
2023-02-11T12:38:37.817Z,101602.19
2023-02-11T12:41:43.321Z,101605.78
2023-02-11T12:44:20.604Z,101591.44
2023-02-11T12:46:54.506Z,101590.78
2023-02-11T12:49:47.224Z,101610.41
2023-02-11T12:52:28.401Z,101614.34
2023-02-11T12:55:02.053Z,101621.44
2023-02-11T12:57:33.399Z,101628.31
2023-02-11T13:00:06.069Z,101631.34
2023-02-11T13:02:43.471Z,101656.66
2023-02-11T13:05:24.280Z,101666.03
2023-02-11T13:07:55.603Z,101661.31
2023-02-11T13:10:29.139Z,101672.09
2023-02-11T13:13:15.978Z,101677.31
2023-02-11T13:15:47.307Z,101686.19
2023-02-11T13:18:30.284Z,101684.00
2023-02-11T13:21:16.514Z,101691.75
2023-02-11T13:23:51.935Z,101690.63
2023-02-11T13:26:25.675Z,101678.50
2023-02-11T13:28:58.537Z,101705.19
2023-02-11T13:31:28.912Z,101706.97
2023-02-11T13:33:56.868Z,101716.72
2023-02-11T13:36:27.999Z,101698.03
2023-02-11T13:39:01.977Z,101722.34
2023-02-11T13:41:41.857Z,101729.69
2023-02-11T13:44:27.858Z,101733.16
2023-02-11T13:47:02.362Z,101578.81
2023-02-11T13:49:37.100Z,101752.66
2023-02-11T13:52:17.699Z,101750.28
2023-02-11T13:54:50.667Z,101763.06
2023-02-11T13:57:39.390Z,101767.81
2023-02-11T14:00:50.205Z,101785.19
2023-02-11T14:03:46.209Z,101786.16
2023-02-11T14:06:37.676Z,101791.69
2023-02-11T14:09:35.432Z,101805.19
2023-02-11T14:12:34.637Z,101803.59
2023-02-11T14:15:18.706Z,101769.88
2023-02-11T14:17:46.818Z,101823.00
2023-02-11T14:20:40.483Z,101823.41
2023-02-11T14:23:08.782Z,101824.59
2023-02-11T14:25:40.872Z,101837.63
2023-02-11T14:28:18.118Z,101850.28
2023-02-11T14:31:06.117Z,101857.78
2023-02-11T14:33:58.664Z,101823.34
2023-02-11T14:36:54.207Z,101876.38
2023-02-11T14:39:40.736Z,101859.06
2023-02-11T14:42:19.021Z,101906.44
2023-02-11T14:44:50.256Z,101908.22
2023-02-11T14:47:20.987Z,101917.66
2023-02-11T14:49:50.493Z,101928.22
2023-02-11T14:52:27.667Z,101913.72
2023-02-11T14:55:14.897Z,101937.88
2023-02-11T14:57:45.927Z,101930.63
2023-02-11T15:00:19.443Z,101949.19
2023-02-11T15:02:48.256Z,101948.94
2023-02-11T15:05:21.703Z,101952.00
2023-02-11T15:07:52.714Z,101953.03
2023-02-11T15:10:27.492Z,101961.16
2023-02-11T15:12:57.643Z,101964.88
2023-02-11T15:15:26.624Z,101951.53
2023-02-11T15:17:55.312Z,101980.28
2023-02-11T15:20:27.078Z,101986.72
2023-02-11T15:22:58.445Z,101994.78
2023-02-11T15:25:28.044Z,101992.03
2023-02-11T15:27:59.133Z,102009.28
2023-02-11T15:30:30.216Z,102019.03
2023-02-11T15:33:00.261Z,102017.88
2023-02-11T15:35:30.429Z,102023.22
2023-02-11T15:37:59.560Z,102019.25
2023-02-11T15:40:30.136Z,102041.94
2023-02-11T15:43:02.873Z,102048.34
2023-02-11T15:45:33.331Z,102029.03
2023-02-11T15:48:09.351Z,102025.47
2023-02-11T15:50:40.824Z,102056.59
2023-02-11T15:53:23.648Z,102046.97
2023-02-11T15:55:54.058Z,102066.81
2023-02-11T15:58:24.875Z,102075.78
2023-02-11T16:00:59.717Z,102083.22
2023-02-11T16:03:32.997Z,102090.50
2023-02-11T16:06:20.074Z,102098.69
2023-02-11T16:09:05.438Z,102112.19
2023-02-11T16:11:35.659Z,102100.13
2023-02-11T16:14:22.969Z,102112.84
2023-02-11T16:16:52.848Z,102123.88
2023-02-11T16:19:25.247Z,102121.00
2023-02-11T16:21:56.387Z,102129.03
2023-02-11T16:24:28.455Z,102142.50
2023-02-11T16:26:59.974Z,102149.16
2023-02-11T16:29:30.512Z,102155.06
2023-02-11T16:32:09.370Z,102160.69
2023-02-11T16:34:37.685Z,102165.53
2023-02-11T16:37:06.726Z,102097.97
2023-02-11T16:39:35.124Z,102173.84
2023-02-11T16:42:05.226Z,102178.09
2023-02-11T16:44:36.975Z,102181.28
2023-02-11T16:47:06.135Z,102182.19
2023-02-11T16:49:36.829Z,102182.19
2023-02-11T16:52:08.993Z,102189.91
2023-02-11T16:54:36.821Z,102188.09
2023-02-11T16:57:10.539Z,102191.25
2023-02-11T16:59:39.782Z,102181.59
2023-02-11T17:02:15.089Z,102208.97
2023-02-11T17:04:43.501Z,102183.72
2023-02-11T17:07:11.339Z,102218.38
2023-02-11T17:09:39.894Z,102231.53
2023-02-11T17:12:08.616Z,102239.25
2023-02-11T17:14:36.451Z,102241.50
2023-02-11T17:17:06.035Z,102222.75
2023-02-11T17:19:33.919Z,102240.59
2023-02-11T17:22:01.863Z,102235.16
2023-02-11T17:24:30.220Z,102261.03
2023-02-11T17:26:58.135Z,102273.88
2023-02-11T17:29:27.146Z,102252.69
2023-02-11T17:31:55.275Z,102279.78
2023-02-11T17:34:25.032Z,102290.22
2023-02-11T17:36:52.941Z,102278.41
2023-02-11T17:39:21.468Z,102309.56
2023-02-11T17:41:49.419Z,102270.81
2023-02-11T17:44:17.299Z,102141.31
2023-02-11T17:46:45.325Z,102323.63
2023-02-11T17:49:13.488Z,102322.56
2023-02-11T17:51:42.736Z,102247.78
2023-02-11T17:54:13.603Z,102318.16
2023-02-11T17:56:41.792Z,102328.31
2023-02-11T17:59:11.642Z,102323.78
2023-02-11T18:01:40.918Z,102330.44
2023-02-11T18:04:10.046Z,102321.66
2023-02-11T18:06:37.961Z,102323.16
2023-02-11T18:09:07.431Z,102335.84
2023-02-11T18:11:37.547Z,102339.78
2023-02-11T18:14:07.836Z,102328.88
2023-02-11T18:16:39.211Z,102341.13
2023-02-11T18:19:07.909Z,102184.31
2023-02-11T18:21:36.374Z,102294.91
2023-02-11T18:24:07.030Z,102348.69
2023-02-11T18:26:37.018Z,102362.44
2023-02-11T18:29:07.158Z,102365.03
2023-02-11T18:31:35.652Z,102369.09
2023-02-11T18:34:04.118Z,102358.03
2023-02-11T18:36:32.297Z,102370.88
2023-02-11T18:39:00.716Z,102379.66
2023-02-11T18:41:28.659Z,102362.97
2023-02-11T18:44:03.186Z,102388.28
2023-02-11T18:46:31.908Z,102340.09
2023-02-11T18:48:59.905Z,102381.91
2023-02-11T18:51:28.170Z,102383.56
2023-02-11T18:53:56.040Z,102378.28
2023-02-11T18:56:25.880Z,102387.66
2023-02-11T18:58:55.259Z,102356.75
2023-02-11T19:01:27.401Z,102389.75
2023-02-11T19:03:57.442Z,102387.94
2023-02-11T19:06:27.536Z,102395.47
2023-02-11T19:08:58.984Z,102322.59
2023-02-11T19:11:42.460Z,102390.47
2023-02-11T19:14:11.234Z,102398.47
2023-02-11T19:16:41.981Z,102406.94
2023-02-11T19:19:10.600Z,102412.06
2023-02-11T19:21:38.817Z,102413.75
2023-02-11T19:24:08.590Z,102404.31
2023-02-11T19:26:37.141Z,102405.22
2023-02-11T19:29:05.614Z,102419.19
2023-02-11T19:31:33.788Z,102425.25
2023-02-11T19:34:03.908Z,102420.09
2023-02-11T19:36:31.850Z,102419.19
2023-02-11T19:39:00.461Z,102409.66
2023-02-11T19:41:28.626Z,102399.66
2023-02-11T19:43:56.811Z,102412.25
2023-02-11T19:46:25.470Z,102415.56
2023-02-11T19:48:53.918Z,102403.41
2023-02-11T19:51:23.824Z,102407.97
2023-02-11T19:53:52.177Z,102411.59
2023-02-11T19:56:20.997Z,102406.16
2023-02-11T19:58:49.395Z,102417.50
2023-02-11T20:01:18.945Z,102427.34
2023-02-11T20:03:50.369Z,102431.56
2023-02-11T20:06:20.918Z,102428.50
2023-02-11T20:08:50.367Z,102445.31
2023-02-11T20:11:18.847Z,102447.88
2023-02-11T20:13:47.140Z,102435.41
2023-02-11T20:16:17.806Z,102444.78
2023-02-11T20:18:46.434Z,102460.53
2023-02-11T20:21:16.747Z,102474.44
2023-02-11T20:23:46.610Z,102470.06
2023-02-11T20:26:18.175Z,102463.53
2023-02-11T20:28:47.023Z,102466.50
2023-02-11T20:31:15.942Z,102476.84
2023-02-11T20:33:45.076Z,102479.25
2023-02-11T20:36:16.199Z,102483.31
2023-02-11T20:38:44.855Z,102482.25
2023-02-11T20:41:16.399Z,102488.28
2023-02-11T20:43:46.684Z,102496.91
2023-02-11T20:46:15.646Z,102497.66
2023-02-11T20:48:43.986Z,102512.75
2023-02-11T20:51:14.312Z,102496.03
2023-02-11T20:53:44.540Z,102509.13
2023-02-11T20:56:13.647Z,102512.44
2023-02-11T20:58:43.371Z,102521.63
2023-02-11T21:01:16.853Z,102527.50
2023-02-11T21:03:45.248Z,102523.13
2023-02-11T21:06:13.432Z,102522.97
2023-02-11T21:08:41.446Z,102439.25
2023-02-11T21:11:09.954Z,102510.53
2023-02-11T21:13:38.378Z,102518.09
2023-02-11T21:16:08.611Z,102522.88
2023-02-11T21:18:36.821Z,102540.69
2023-02-11T21:21:07.002Z,102520.22
2023-02-11T21:23:35.804Z,102546.13
2023-02-11T21:26:03.859Z,102543.06
2023-02-11T21:28:31.712Z,102537.94
2023-02-11T21:31:00.256Z,102549.09
2023-02-11T21:33:30.421Z,102537.75
2023-02-11T21:35:59.877Z,102532.78
2023-02-11T21:38:28.289Z,102539.59
2023-02-11T21:40:56.377Z,102542.41
2023-02-11T21:43:24.981Z,102540.00
2023-02-11T21:45:53.193Z,102507.22
2023-02-11T21:48:21.479Z,102535.59
2023-02-11T21:50:50.831Z,102460.44
2023-02-11T21:53:19.263Z,102542.22
2023-02-11T21:55:47.410Z,102518.22
2023-02-11T21:58:15.639Z,102544.47
2023-02-11T22:00:43.655Z,102551.09
2023-02-11T22:03:12.172Z,102550.19
2023-02-11T22:05:41.375Z,102561.38
2023-02-11T22:08:10.646Z,102555.31
2023-02-11T22:10:39.064Z,102554.56
2023-02-11T22:13:06.884Z,102569.97
2023-02-11T22:15:34.841Z,102554.41
2023-02-11T22:18:02.996Z,102567.06
2023-02-11T22:20:30.828Z,102553.41
2023-02-11T22:22:59.668Z,102477.81
2023-02-11T22:25:28.965Z,102560.28
2023-02-11T22:27:56.890Z,102554.56
2023-02-11T22:30:24.832Z,102554.75
2023-02-11T22:32:52.752Z,102538.69
2023-02-11T22:35:20.595Z,102554.56
2023-02-11T22:37:48.562Z,102546.69
2023-02-11T22:40:16.761Z,102361.72
2023-02-11T22:42:45.933Z,102558.63
2023-02-11T22:45:13.997Z,102561.78
2023-02-11T22:47:42.030Z,102568.56
2023-02-11T22:50:10.387Z,102577.91
2023-02-11T22:52:38.331Z,102581.06
2023-02-11T22:55:07.173Z,102585.28
2023-02-11T22:57:35.033Z,102541.03
2023-02-11T23:00:09.963Z,102579.81
2023-02-11T23:02:37.921Z,102600.19
2023-02-11T23:05:05.984Z,102606.97
2023-02-11T23:07:34.006Z,102597.69
2023-02-11T23:10:01.932Z,102599.28
2023-02-11T23:12:29.791Z,102609.53
2023-02-11T23:14:57.863Z,102582.53
2023-02-11T23:17:28.926Z,102591.56
2023-02-11T23:19:56.801Z,102589.19
2023-02-11T23:22:24.839Z,102588.09
2023-02-11T23:24:52.834Z,102577.72
2023-02-11T23:27:20.706Z,102581.53
2023-02-11T23:29:48.778Z,102591.81
2023-02-11T23:32:16.800Z,102478.22
2023-02-11T23:34:46.077Z,102570.34
2023-02-11T23:37:13.948Z,102594.63
2023-02-11T23:39:41.908Z,102587.81
2023-02-11T23:42:11.984Z,102572.16
2023-02-11T23:44:40.004Z,102590.72
2023-02-11T23:47:08.049Z,102598.59
2023-02-11T23:49:35.870Z,102585.03
2023-02-11T23:52:05.282Z,102570.78
2023-02-11T23:54:33.168Z,102579.16
2023-02-11T23:57:01.012Z,102559.84
2023-02-11T23:59:29.077Z,102587.94
